createdAt,value
2023-01-26T02:50:37.661Z,52.33
2023-01-26T02:53:06.912Z,54.00
2023-01-26T02:55:35.818Z,57.67
2023-01-26T02:58:05.595Z,52.33
2023-01-26T03:00:58.060Z,60.00
2023-01-26T03:03:42.281Z,61.00
2023-01-26T03:06:11.771Z,62.33
2023-01-26T03:08:48.649Z,68.00
2023-01-26T03:11:17.450Z,77.00
2023-01-26T03:13:46.870Z,82.75
2023-01-26T03:16:19.226Z,78.75
2023-01-26T03:19:07.927Z,68.00
2023-01-26T03:21:55.994Z,78.00
2023-01-26T03:24:44.401Z,89.00
2023-01-26T03:27:33.997Z,108.00
2023-01-26T03:30:02.830Z,97.75
2023-01-26T03:32:31.470Z,87.25
2023-01-26T03:35:00.413Z,91.25
2023-01-26T03:37:31.470Z,76.75
2023-01-26T03:40:19.925Z,96.75
2023-01-26T03:43:07.484Z,73.00
2023-01-26T03:45:56.122Z,75.25
2023-01-26T03:48:44.005Z,77.00
2023-01-26T03:51:32.172Z,73.00
2023-01-26T03:54:19.901Z,70.75
2023-01-26T03:56:48.803Z,65.75
2023-01-26T03:59:17.573Z,72.00
2023-01-26T04:02:07.000Z,64.00
2023-01-26T04:04:56.617Z,74.00
2023-01-26T04:07:44.026Z,80.75
2023-01-26T04:10:13.829Z,74.25
2023-01-26T04:12:42.542Z,77.75
2023-01-26T04:15:30.977Z,73.50
2023-01-26T04:18:25.774Z,66.75
2023-01-26T04:21:13.776Z,68.00
2023-01-26T04:23:41.611Z,68.00
2023-01-26T04:26:11.481Z,69.00
2023-01-26T04:28:41.288Z,66.00
2023-01-26T04:31:10.539Z,71.75
2023-01-26T04:33:38.369Z,69.00
2023-01-26T04:36:09.404Z,72.25
2023-01-26T04:38:38.920Z,74.75
2023-01-26T04:41:07.594Z,70.00
2023-01-26T04:43:37.051Z,68.00
2023-01-26T04:46:08.080Z,67.00
2023-01-26T04:48:38.208Z,67.75
2023-01-26T04:51:12.356Z,73.00
2023-01-26T04:53:40.561Z,68.75
2023-01-26T04:56:39.089Z,63.25
2023-01-26T04:59:08.853Z,67.00
2023-01-26T05:01:37.486Z,64.00
2023-01-26T05:04:08.723Z,67.00
2023-01-26T05:06:41.484Z,57.00
2023-01-26T05:09:11.776Z,61.00
2023-01-26T05:11:42.230Z,59.50
2023-01-26T05:14:10.408Z,56.25
2023-01-26T05:16:40.262Z,62.00
2023-01-26T05:19:09.496Z,64.00
2023-01-26T05:21:38.488Z,62.25
2023-01-26T05:24:09.565Z,55.25
2023-01-26T05:26:38.871Z,67.00
2023-01-26T05:29:09.300Z,17.00
2023-01-26T05:31:47.905Z,63.50
2023-01-26T05:34:17.289Z,62.75
2023-01-26T05:36:45.895Z,66.00
2023-01-26T05:39:15.172Z,62.75
2023-01-26T05:41:45.584Z,59.25
2023-01-26T05:44:14.910Z,64.50
2023-01-26T05:46:44.518Z,59.50
2023-01-26T05:49:16.306Z,59.25
2023-01-26T05:51:44.359Z,59.00
2023-01-26T05:54:24.899Z,40.00
2023-01-26T05:56:57.793Z,61.25
2023-01-26T05:59:29.298Z,68.50
2023-01-26T06:01:58.344Z,66.75
2023-01-26T06:04:29.578Z,62.25
2023-01-26T06:07:01.081Z,68.50
2023-01-26T06:09:31.042Z,63.75
2023-01-26T06:11:59.397Z,68.00
2023-01-26T06:14:31.962Z,68.00
2023-01-26T06:17:00.533Z,66.75
2023-01-26T06:19:34.130Z,68.75
2023-01-26T06:22:03.142Z,65.25
2023-01-26T06:24:37.775Z,62.75
2023-01-26T06:27:18.963Z,59.67
2023-01-26T06:29:48.377Z,59.67
2023-01-26T06:32:16.956Z,60.00
2023-01-26T06:34:46.107Z,64.00
2023-01-26T06:37:15.213Z,62.00
2023-01-26T06:39:43.543Z,66.00
2023-01-26T06:42:13.680Z,61.67
2023-01-26T06:44:42.302Z,62.67
2023-01-26T06:47:12.568Z,62.00
2023-01-26T06:49:43.395Z,59.67
2023-01-26T06:52:33.180Z,5.00
2023-01-26T06:55:03.768Z,68.00
2023-01-26T06:57:32.394Z,72.50
2023-01-26T07:00:04.139Z,69.00
2023-01-26T07:02:32.432Z,61.67
2023-01-26T07:05:01.813Z,71.25
2023-01-26T07:07:31.917Z,32.67
2023-01-26T07:10:20.880Z,69.33
2023-01-26T07:12:49.850Z,73.67
2023-01-26T07:15:18.934Z,70.67
2023-01-26T07:17:48.010Z,68.67
2023-01-26T07:20:17.457Z,71.67
2023-01-26T07:22:48.408Z,73.67
2023-01-26T07:25:18.745Z,69.00
2023-01-26T07:27:56.401Z,70.67
2023-01-26T07:30:25.915Z,68.00
2023-01-26T07:32:56.372Z,69.00
2023-01-26T07:35:25.411Z,71.33
2023-01-26T07:38:00.710Z,71.00
2023-01-26T07:40:34.504Z,72.67
2023-01-26T07:43:04.099Z,76.67
2023-01-26T07:45:32.462Z,68.33
2023-01-26T07:48:03.565Z,71.67
2023-01-26T07:50:32.914Z,71.00
2023-01-26T07:53:01.736Z,66.33
2023-01-26T07:55:34.560Z,69.00
2023-01-26T07:58:02.990Z,57.33
2023-01-26T08:00:31.385Z,70.67
2023-01-26T08:03:04.700Z,70.67
2023-01-26T08:05:37.825Z,35.33
2023-01-26T08:08:07.446Z,51.33
2023-01-26T08:10:37.202Z,65.00
2023-01-26T08:13:05.500Z,70.33
2023-01-26T08:15:38.767Z,67.67
2023-01-26T08:18:07.399Z,69.33
2023-01-26T08:20:38.177Z,70.33
2023-01-26T08:23:06.528Z,39.67
2023-01-26T08:25:36.034Z,63.33
2023-01-26T08:28:04.398Z,64.33
2023-01-26T08:30:33.913Z,68.67
2023-01-26T08:33:03.348Z,65.00
2023-01-26T08:35:36.858Z,58.00
2023-01-26T08:38:15.049Z,68.00
2023-01-26T08:41:02.883Z,64.33
2023-01-26T09:04:41.154Z,56.00
2023-01-26T09:07:20.411Z,56.25
2023-01-26T09:09:55.425Z,55.75
2023-01-26T09:12:25.675Z,52.25
2023-01-26T09:14:54.838Z,54.25
2023-01-26T09:17:37.541Z,53.25
2023-01-26T09:20:07.915Z,53.00
2023-01-26T09:22:36.518Z,40.75
2023-01-26T09:25:05.871Z,52.00
2023-01-26T09:27:37.160Z,55.00
2023-01-26T09:30:13.572Z,55.25
2023-01-26T09:32:47.157Z,50.25
2023-01-26T09:35:18.479Z,55.00
2023-01-26T09:37:47.413Z,50.25
2023-01-26T09:40:34.883Z,55.75
2023-01-26T09:43:44.875Z,52.00
2023-01-26T09:46:32.927Z,46.75
2023-01-26T09:49:15.062Z,50.75
2023-01-26T09:52:18.460Z,48.25
2023-01-26T09:54:54.011Z,48.75
2023-01-26T09:57:28.459Z,50.25
2023-01-26T10:00:06.391Z,49.75
2023-01-26T10:03:13.084Z,52.50
2023-01-26T10:06:19.181Z,51.75
2023-01-26T10:08:50.387Z,47.75
2023-01-26T10:11:37.004Z,48.75
2023-01-26T10:14:32.918Z,54.25
2023-01-26T10:17:06.808Z,48.00
2023-01-26T10:19:49.612Z,43.00
2023-01-26T10:22:41.467Z,44.75
2023-01-26T10:25:27.140Z,47.50
2023-01-26T10:27:56.392Z,49.75
2023-01-26T10:30:24.198Z,48.25
2023-01-26T10:32:53.427Z,42.50
2023-01-26T10:35:25.484Z,44.75
2023-01-26T10:37:54.739Z,46.50
2023-01-26T10:43:07.786Z,49.00
2023-01-26T11:19:22.428Z,37.25
2023-01-26T11:22:09.241Z,33.25
2023-01-26T11:25:05.251Z,37.50
2023-01-26T11:28:09.240Z,33.75
2023-01-26T11:31:21.259Z,33.25
2023-01-26T11:34:31.404Z,29.00
2023-01-26T11:37:37.460Z,34.50
2023-01-26T11:40:31.997Z,32.75
2023-01-26T11:43:44.255Z,32.25
2023-01-26T11:46:50.216Z,27.25
2023-01-26T11:49:31.071Z,30.75
2023-01-26T11:52:10.951Z,26.25
2023-01-26T12:13:17.976Z,31.00
2023-01-26T23:00:37.300Z,52.33
2023-01-26T23:25:18.793Z,50.33
2023-01-26T23:28:06.320Z,52.33
2023-01-26T23:30:37.974Z,51.67
2023-01-26T23:33:08.533Z,19.00
2023-01-26T23:35:57.546Z,54.33
2023-01-26T23:38:36.889Z,49.33
2023-01-26T23:44:30.157Z,60.00
